Time,TemperatureF,DewpointF,PressureIn,WindDirection,WindDirectionDegrees,WindSpeedMPH,WindSpeedGustMPH,Humidity,HourlyPrecipIn,Conditions,Clouds,dailyrainin,SoftwareType,DateUTC
2013-01-13 00:03:00,68.8,66.4,30.00,SSE,161,2.0,2.0,92,0.00,,,0.00,VWS V14.01,2013-01-13 06:03:00,
2013-01-13 00:08:00,68.8,66.7,29.99,South,171,0.0,0.0,93,0.00,,,0.00,VWS V14.01,2013-01-13 06:08:00,
2013-01-13 00:13:00,68.8,66.4,29.99,SSE,155,0.0,0.0,92,0.00,,,0.00,VWS V14.01,2013-01-13 06:13:00,
2013-01-13 00:18:00,68.9,66.5,29.99,South,184,3.0,3.0,92,0.00,,,0.00,VWS V14.01,2013-01-13 06:18:00,
2013-01-13 00:23:00,68.9,66.5,29.99,SSE,158,0.0,0.0,92,0.00,,,0.00,VWS V14.01,2013-01-13 06:23:00,
2013-01-13 00:28:00,68.9,66.8,30.00,South,182,7.0,9.0,93,0.00,,,0.00,VWS V14.01,2013-01-13 06:28:00,
2013-01-13 00:33:00,68.9,66.8,29.99,SSE,150,7.0,8.0,93,0.00,,,0.00,VWS V14.01,2013-01-13 06:33:00,
2013-01-13 00:38:00,68.8,66.4,29.99,SSE,149,5.0,5.0,92,0.00,,,0.00,VWS V14.01,2013-01-13 06:38:00,
2013-01-13 00:43:00,68.8,66.4,29.99,South,169,0.0,0.0,92,0.00,,,0.00,VWS V14.01,2013-01-13 06:43:00,
2013-01-13 00:48:00,68.7,66.6,29.99,SSE,163,0.0,0.0,93,0.00,,,0.00,VWS V14.01,2013-01-13 06:48:00,
2013-01-13 00:53:00,68.8,66.4,30.00,South,189,0.0,0.0,92,0.00,,,0.00,VWS V14.01,2013-01-13 06:53:00,
2013-01-13 00:58:00,68.8,66.4,29.99,South,177,0.0,0.0,92,0.00,,,0.00,VWS V14.01,2013-01-13 06:58:00,
2013-01-13 01:03:00,68.8,66.4,30.00,South,177,0.0,0.0,92,0.00,,,0.00,VWS V14.01,2013-01-13 07:03:00,
2013-01-13 01:08:00,68.9,66.5,29.99,SSE,163,2.0,3.0,92,0.00,,,0.00,VWS V14.01,2013-01-13 07:08:00,
2013-01-13 01:13:00,68.8,66.4,30.00,South,170,0.0,0.0,92,0.00,,,0.00,VWS V14.01,2013-01-13 07:13:00,
2013-01-13 01:18:00,68.8,66.4,30.00,SSE,160,0.0,0.0,92,0.00,,,0.00,VWS V14.01,2013-01-13 07:18:00,
2013-01-13 01:23:00,68.8,66.4,30.00,SSE,160,0.0,0.0,92,0.00,,,0.00,VWS V14.01,2013-01-13 07:23:00,
2013-01-13 01:28:00,68.8,66.4,29.99,SSE,160,0.0,0.0,92,0.00,,,0.00,VWS V14.01,2013-01-13 07:28:00,
2013-01-13 01:33:00,68.8,66.4,29.99,SSE,160,0.0,0.0,92,0.00,,,0.00,VWS V14.01,2013-01-13 07:33:00,
2013-01-13 01:38:00,68.8,66.4,29.99,SSE,160,0.0,0.0,92,0.00,,,0.00,VWS V14.01,2013-01-13 07:38:00,
2013-01-13 01:43:00,68.8,66.4,29.99,South,185,0.0,0.0,92,0.00,,,0.00,VWS V14.01,2013-01-13 07:43:00,
2013-01-13 01:48:00,68.8,66.4,29.99,SE,145,4.0,4.0,92,0.00,,,0.00,VWS V14.01,2013-01-13 07:48:00,
2013-01-13 01:53:00,68.8,66.4,29.98,SSE,150,1.0,1.0,92,0.00,,,0.00,VWS V14.01,2013-01-13 07:53:00,
2013-01-13 01:58:00,68.9,66.5,29.99,South,172,0.0,0.0,92,0.00,,,0.00,VWS V14.01,2013-01-13 07:58:00,
2013-01-13 02:03:00,68.8,66.4,29.99,SSE,148,3.0,5.0,92,0.00,,,0.00,VWS V14.01,2013-01-13 08:03:00,
2013-01-13 02:08:00,68.8,66.4,29.99,SSE,154,2.0,3.0,92,0.00,,,0.00,VWS V14.01,2013-01-13 08:08:00,
2013-01-13 02:13:00,68.8,66.4,29.98,SE,142,1.0,6.0,92,0.00,,,0.00,VWS V14.01,2013-01-13 08:13:00,
2013-01-13 02:18:00,68.8,66.7,29.97,SSE,153,1.0,3.0,93,0.00,,,0.00,VWS V14.01,2013-01-13 08:18:00,
2013-01-13 02:23:00,68.7,66.6,29.98,SE,144,4.0,4.0,93,0.00,,,0.00,VWS V14.01,2013-01-13 08:23:00,
2013-01-13 02:28:00,68.7,66.6,29.97,SSE,157,3.0,4.0,93,0.00,,,0.00,VWS V14.01,2013-01-13 08:28:00,
2013-01-13 02:33:00,68.7,66.6,29.97,SSE,151,0.0,0.0,93,0.00,,,0.00,VWS V14.01,2013-01-13 08:33:00,
2013-01-13 02:38:00,68.8,66.7,29.97,SSE,154,2.0,2.0,93,0.00,,,0.00,VWS V14.01,2013-01-13 08:38:00,
2013-01-13 02:43:00,68.7,66.6,29.97,South,171,0.0,3.0,93,0.00,,,0.00,VWS V14.01,2013-01-13 08:43:00,
2013-01-13 02:48:00,68.7,66.6,29.97,SSW,195,0.0,0.0,93,0.00,,,0.00,VWS V14.01,2013-01-13 08:48:00,
2013-01-13 02:53:00,68.7,66.6,29.96,SSE,164,0.0,0.0,93,0.00,,,0.00,VWS V14.01,2013-01-13 08:53:00,
2013-01-13 02:58:00,68.8,66.7,29.96,South,181,1.0,1.0,93,0.00,,,0.00,VWS V14.01,2013-01-13 08:58:00,
2013-01-13 03:03:00,68.8,66.7,29.96,SSE,158,3.0,14.0,93,0.00,,,0.00,VWS V14.01,2013-01-13 09:03:00,
2013-01-13 03:08:00,68.8,66.7,29.95,SSE,150,0.0,0.0,93,0.00,,,0.00,VWS V14.01,2013-01-13 09:08:00,
2013-01-13 03:13:00,68.8,66.7,29.95,South,184,0.0,1.0,93,0.00,,,0.00,VWS V14.01,2013-01-13 09:13:00,
2013-01-13 03:18:00,68.8,66.7,29.95,South,184,0.0,7.0,93,0.00,,,0.00,VWS V14.01,2013-01-13 09:18:00,
2013-01-13 03:23:00,68.8,66.7,29.96,South,186,0.0,6.0,93,0.00,,,0.00,VWS V14.01,2013-01-13 09:23:00,
2013-01-13 03:28:00,68.8,66.7,29.95,South,171,3.0,6.0,93,0.00,,,0.00,VWS V14.01,2013-01-13 09:28:00,
2013-01-13 03:33:00,68.8,67.0,29.95,South,185,0.0,6.0,94,0.00,,,0.00,VWS V14.01,2013-01-13 09:33:00,
2013-01-13 03:38:00,68.8,66.7,29.95,South,190,0.0,5.0,93,0.00,,,0.00,VWS V14.01,2013-01-13 09:38:00,
2013-01-13 03:43:00,68.8,67.0,29.95,South,180,0.0,2.0,94,0.00,,,0.00,VWS V14.01,2013-01-13 09:43:00,
2013-01-13 03:48:00,68.8,66.7,29.95,SSE,155,0.0,1.0,93,0.00,,,0.00,VWS V14.01,2013-01-13 09:48:00,
2013-01-13 03:53:00,68.8,67.0,29.95,South,178,0.0,3.0,94,0.00,,,0.00,VWS V14.01,2013-01-13 09:53:00,
2013-01-13 03:58:00,68.8,66.7,29.96,SSE,160,2.0,5.0,93,0.00,,,0.00,VWS V14.01,2013-01-13 09:58:00,
2013-01-13 04:03:00,68.8,67.0,29.96,South,171,0.0,1.0,94,0.00,,,0.00,VWS V14.01,2013-01-13 10:03:00,
2013-01-13 04:08:00,68.8,66.7,29.95,South,174,1.0,2.0,93,0.00,,,0.00,VWS V14.01,2013-01-13 10:08:00,
2013-01-13 04:13:00,68.7,66.9,29.95,SSW,202,0.0,1.0,94,0.00,,,0.00,VWS V14.01,2013-01-13 10:13:00,
2013-01-13 04:18:00,68.7,66.9,29.95,South,176,0.0,0.0,94,0.00,,,0.00,VWS V14.01,2013-01-13 10:18:00,
2013-01-13 04:23:00,68.7,66.9,29.95,South,169,5.0,9.0,94,0.00,,,0.00,VWS V14.01,2013-01-13 10:23:00,
2013-01-13 04:28:00,68.7,66.9,29.96,SSW,199,4.0,5.0,94,0.00,,,0.00,VWS V14.01,2013-01-13 10:28:00,
2013-01-13 04:33:00,68.7,66.9,29.96,SSW,193,3.0,3.0,94,0.00,,,0.00,VWS V14.01,2013-01-13 10:33:00,
2013-01-13 04:38:00,68.7,66.9,29.96,SW,226,10.0,10.0,94,0.00,,,0.00,VWS V14.01,2013-01-13 10:38:00,
2013-01-13 04:43:00,68.7,66.9,29.96,SW,226,1.0,6.0,94,0.00,,,0.00,VWS V14.01,2013-01-13 10:43:00,
2013-01-13 04:48:00,68.7,66.6,29.96,South,185,6.0,6.0,93,0.00,,,0.00,VWS V14.01,2013-01-13 10:48:00,
2013-01-13 04:53:00,68.7,66.9,29.96,South,188,4.0,10.0,94,0.00,,,0.00,VWS V14.01,2013-01-13 10:53:00,
2013-01-13 04:58:00,68.7,66.9,29.97,South,188,1.0,4.0,94,0.00,,,0.00,VWS V14.01,2013-01-13 10:58:00,
2013-01-13 05:03:00,68.8,67.0,29.97,SSE,166,0.0,0.0,94,0.00,,,0.00,VWS V14.01,2013-01-13 11:03:00,
2013-01-13 05:08:00,68.8,67.0,29.98,SW,231,0.0,4.0,94,0.00,,,0.00,VWS V14.01,2013-01-13 11:08:00,
2013-01-13 05:13:00,68.8,67.0,29.97,SSE,163,0.0,0.0,94,0.00,,,0.00,VWS V14.01,2013-01-13 11:13:00,
2013-01-13 05:18:00,68.7,66.6,29.98,SSW,206,0.0,1.0,93,0.00,,,0.00,VWS V14.01,2013-01-13 11:18:00,
2013-01-13 05:23:00,68.6,66.8,29.97,South,177,1.0,4.0,94,0.00,,,0.00,VWS V14.01,2013-01-13 11:23:00,
2013-01-13 05:28:00,68.5,66.7,29.98,South,178,0.0,2.0,94,0.00,,,0.00,VWS V14.01,2013-01-13 11:28:00,
2013-01-13 05:32:00,68.4,66.6,29.97,South,178,0.0,0.0,94,0.00,,,0.00,VWS V14.01,2013-01-13 11:32:00,
2013-01-13 05:37:00,68.4,66.3,29.97,South,181,0.0,0.0,93,0.00,,,0.00,VWS V14.01,2013-01-13 11:37:00,
2013-01-13 05:42:00,68.4,66.6,29.97,SE,138,3.0,3.0,94,0.00,,,0.00,VWS V14.01,2013-01-13 11:42:00,
2013-01-13 05:47:00,68.3,66.5,29.98,South,174,2.0,5.0,94,0.00,,,0.00,VWS V14.01,2013-01-13 11:47:00,
2013-01-13 05:52:00,68.3,66.5,29.98,SSE,168,0.0,1.0,94,0.00,,,0.00,VWS V14.01,2013-01-13 11:52:00,
2013-01-13 05:57:00,68.3,66.5,29.99,SSE,150,0.0,6.0,94,0.00,,,0.00,VWS V14.01,2013-01-13 11:57:00,
2013-01-13 06:02:00,68.3,66.5,29.99,South,182,2.0,7.0,94,0.00,,,0.00,VWS V14.01,2013-01-13 12:02:00,
2013-01-13 06:07:00,68.3,66.5,29.99,South,172,4.0,12.0,94,0.00,,,0.00,VWS V14.01,2013-01-13 12:07:00,
2013-01-13 06:12:00,68.3,66.5,29.99,South,169,0.0,1.0,94,0.00,,,0.00,VWS V14.01,2013-01-13 12:12:00,
2013-01-13 06:17:00,68.2,66.4,29.99,South,175,0.0,1.0,94,0.00,,,0.00,VWS V14.01,2013-01-13 12:17:00,
2013-01-13 06:22:00,68.1,66.3,29.99,South,171,1.0,6.0,94,0.00,,,0.00,VWS V14.01,2013-01-13 12:22:00,
2013-01-13 06:27:00,68.0,66.2,29.99,South,180,4.0,5.0,94,0.00,,,0.00,VWS V14.01,2013-01-13 12:27:00,
2013-01-13 06:32:00,68.0,66.2,29.98,SSE,153,0.0,9.0,94,0.00,,,0.00,VWS V14.01,2013-01-13 12:32:00,
2013-01-13 06:37:00,67.9,66.1,29.99,SSE,150,0.0,6.0,94,0.00,,,0.00,VWS V14.01,2013-01-13 12:37:00,
2013-01-13 06:42:00,67.8,66.3,29.98,SSE,164,4.0,9.0,95,0.00,,,0.00,VWS V14.01,2013-01-13 12:42:00,
2013-01-13 06:47:00,67.7,66.2,29.99,SSE,165,0.0,0.0,95,0.00,,,0.00,VWS V14.01,2013-01-13 12:47:00,
2013-01-13 06:52:00,67.6,66.1,29.99,South,181,0.0,5.0,95,0.00,,,0.00,VWS V14.01,2013-01-13 12:52:00,
2013-01-13 06:57:00,67.6,66.1,29.99,SSE,153,1.0,4.0,95,0.00,,,0.00,VWS V14.01,2013-01-13 12:57:00,
2013-01-13 07:02:00,67.5,66.0,29.99,SE,144,5.0,10.0,95,0.00,,,0.00,VWS V14.01,2013-01-13 13:02:00,
2013-01-13 07:07:00,67.5,66.0,30.00,SSE,165,0.0,8.0,95,0.00,,,0.00,VWS V14.01,2013-01-13 13:07:00,
2013-01-13 07:12:00,67.5,66.0,30.00,SSE,167,5.0,5.0,95,0.00,,,0.00,VWS V14.01,2013-01-13 13:12:00,
2013-01-13 07:17:00,67.4,66.2,30.00,SSE,148,0.0,3.0,96,0.00,,,0.00,VWS V14.01,2013-01-13 13:17:00,
2013-01-13 07:22:00,67.4,65.9,30.00,SE,143,0.0,1.0,95,0.00,,,0.00,VWS V14.01,2013-01-13 13:22:00,
2013-01-13 07:27:00,67.4,66.2,30.00,SSE,158,0.0,6.0,96,0.00,,,0.00,VWS V14.01,2013-01-13 13:27:00,
2013-01-13 07:32:00,67.5,66.3,30.01,SSE,160,0.0,5.0,96,0.00,,,0.00,VWS V14.01,2013-01-13 13:32:00,
2013-01-13 07:37:00,67.6,66.4,30.00,SSE,159,2.0,4.0,96,0.00,,,0.00,VWS V14.01,2013-01-13 13:37:00,
2013-01-13 07:42:00,67.7,66.5,30.00,SSE,151,6.0,7.0,96,0.00,,,0.00,VWS V14.01,2013-01-13 13:42:00,
2013-01-13 07:47:00,67.8,66.6,30.00,South,180,5.0,12.0,96,0.00,,,0.00,VWS V14.01,2013-01-13 13:47:00,
2013-01-13 07:52:00,68.0,66.8,30.01,SSE,151,3.0,6.0,96,0.00,,,0.00,VWS V14.01,2013-01-13 13:52:00,
2013-01-13 07:57:00,68.1,66.9,30.01,SSE,155,0.0,4.0,96,0.00,,,0.00,VWS V14.01,2013-01-13 13:57:00,
2013-01-13 08:02:00,68.2,67.0,30.01,South,176,6.0,9.0,96,0.00,,,0.00,VWS V14.01,2013-01-13 14:02:00,
2013-01-13 08:07:00,68.3,66.8,30.00,SSE,152,3.0,11.0,95,0.00,,,0.00,VWS V14.01,2013-01-13 14:07:00,
2013-01-13 08:12:00,68.4,66.9,30.01,South,183,0.0,4.0,95,0.00,,,0.00,VWS V14.01,2013-01-13 14:12:00,
2013-01-13 08:17:00,68.6,67.1,30.01,South,175,0.0,3.0,95,0.00,,,0.00,VWS V14.01,2013-01-13 14:17:00,
2013-01-13 08:22:00,68.7,67.5,30.01,SSE,157,0.0,7.0,96,0.00,,,0.00,VWS V14.01,2013-01-13 14:22:00,
2013-01-13 08:27:00,68.9,67.4,30.01,SSW,202,3.0,11.0,95,0.00,,,0.00,VWS V14.01,2013-01-13 14:27:00,
2013-01-13 08:32:00,69.1,67.6,30.01,SSE,159,6.0,9.0,95,0.00,,,0.00,VWS V14.01,2013-01-13 14:32:00,
2013-01-13 08:37:00,69.3,67.8,30.01,South,178,1.0,11.0,95,0.00,,,0.00,VWS V14.01,2013-01-13 14:37:00,
2013-01-13 08:42:00,69.6,68.1,30.02,SE,139,3.0,11.0,95,0.00,,,0.00,VWS V14.01,2013-01-13 14:42:00,
2013-01-13 08:47:00,69.8,68.3,30.02,South,180,1.0,9.0,95,0.00,,,0.00,VWS V14.01,2013-01-13 14:47:00,
2013-01-13 08:52:00,69.9,68.1,30.03,South,187,3.0,5.0,94,0.00,,,0.00,VWS V14.01,2013-01-13 14:52:00,
2013-01-13 08:57:00,70.1,68.3,30.02,SSE,164,5.0,5.0,94,0.00,,,0.00,VWS V14.01,2013-01-13 14:57:00,
2013-01-13 09:02:00,70.3,68.2,30.02,SSE,161,7.0,9.0,93,0.00,,,0.00,VWS V14.01,2013-01-13 15:02:00,
2013-01-13 09:07:00,70.4,68.3,30.01,SSE,166,0.0,4.0,93,0.00,,,0.00,VWS V14.01,2013-01-13 15:07:00,
2013-01-13 09:12:00,70.6,68.2,30.02,SSE,158,5.0,5.0,92,0.00,,,0.00,VWS V14.01,2013-01-13 15:12:00,
2013-01-13 09:17:00,70.7,68.3,30.02,SW,219,4.0,7.0,92,0.00,,,0.00,VWS V14.01,2013-01-13 15:17:00,
2013-01-13 09:22:00,70.8,68.4,30.01,SSE,165,1.0,11.0,92,0.00,,,0.00,VWS V14.01,2013-01-13 15:22:00,
2013-01-13 09:27:00,70.9,68.2,30.01,SSE,163,1.0,10.0,91,0.00,,,0.00,VWS V14.01,2013-01-13 15:27:00,
2013-01-13 09:32:00,71.0,68.2,30.01,SSW,195,0.0,4.0,91,0.00,,,0.00,VWS V14.01,2013-01-13 15:32:00,
2013-01-13 09:37:00,71.1,68.0,30.01,SSE,166,0.0,6.0,90,0.00,,,0.00,VWS V14.01,2013-01-13 15:37:00,
2013-01-13 09:42:00,71.2,68.1,30.01,South,182,3.0,5.0,90,0.00,,,0.00,VWS V14.01,2013-01-13 15:42:00,
2013-01-13 09:47:00,71.3,68.2,30.01,South,189,7.0,9.0,90,0.00,,,0.00,VWS V14.01,2013-01-13 15:47:00,
2013-01-13 09:52:00,71.3,68.2,30.00,SSE,168,9.0,10.0,90,0.00,,,0.00,VWS V14.01,2013-01-13 15:52:00,
2013-01-13 09:57:00,71.4,68.3,30.00,SE,142,6.0,7.0,90,0.00,,,0.00,VWS V14.01,2013-01-13 15:57:00,
2013-01-13 10:02:00,71.5,68.1,30.01,South,175,3.0,9.0,89,0.00,,,0.00,VWS V14.01,2013-01-13 16:02:00,
2013-01-13 10:07:00,71.7,68.3,30.00,SSE,163,9.0,12.0,89,0.00,,,0.00,VWS V14.01,2013-01-13 16:07:00,
2013-01-13 10:12:00,71.9,68.2,30.01,SSW,197,5.0,12.0,88,0.00,,,0.00,VWS V14.01,2013-01-13 16:12:00,
2013-01-13 10:17:00,72.0,67.9,30.01,South,169,8.0,9.0,87,0.00,,,0.00,VWS V14.01,2013-01-13 16:17:00,
2013-01-13 10:22:00,72.1,68.0,30.00,SSE,151,9.0,11.0,87,0.00,,,0.00,VWS V14.01,2013-01-13 16:22:00,
2013-01-13 10:27:00,72.3,68.2,30.00,South,183,3.0,7.0,87,0.00,,,0.00,VWS V14.01,2013-01-13 16:27:00,
2013-01-13 10:32:00,72.4,68.3,30.00,South,191,3.0,3.0,87,0.00,,,0.00,VWS V14.01,2013-01-13 16:32:00,
2013-01-13 10:37:00,72.5,68.1,30.00,South,174,6.0,7.0,86,0.00,,,0.00,VWS V14.01,2013-01-13 16:37:00,
2013-01-13 10:42:00,72.4,68.0,30.00,SSW,203,3.0,5.0,86,0.00,,,0.00,VWS V14.01,2013-01-13 16:42:00,
2013-01-13 10:47:00,72.5,68.1,30.00,South,186,5.0,6.0,86,0.00,,,0.00,VWS V14.01,2013-01-13 16:47:00,
2013-01-13 10:52:00,72.5,68.1,30.00,SSE,156,1.0,17.0,86,0.00,,,0.00,VWS V14.01,2013-01-13 16:52:00,
2013-01-13 10:57:00,72.6,68.2,30.00,South,172,5.0,12.0,86,0.00,,,0.00,VWS V14.01,2013-01-13 16:57:00,
2013-01-13 11:02:00,72.9,68.1,29.99,SSE,162,0.0,4.0,85,0.00,,,0.00,VWS V14.01,2013-01-13 17:02:00,
2013-01-13 11:07:00,73.1,68.3,30.00,SSE,148,5.0,7.0,85,0.00,,,0.00,VWS V14.01,2013-01-13 17:07:00,
2013-01-13 11:12:00,73.3,68.2,30.00,SSE,160,5.0,6.0,84,0.00,,,0.00,VWS V14.01,2013-01-13 17:12:00,
2013-01-13 11:17:00,73.3,67.8,30.00,SSW,206,6.0,10.0,83,0.00,,,0.00,VWS V14.01,2013-01-13 17:17:00,
2013-01-13 11:22:00,73.3,68.2,30.00,SSW,206,2.0,6.0,84,0.00,,,0.00,VWS V14.01,2013-01-13 17:22:00,
2013-01-13 11:27:00,73.4,68.3,30.00,South,179,6.0,13.0,84,0.00,,,0.00,VWS V14.01,2013-01-13 17:27:00,
2013-01-13 11:32:00,73.5,68.0,30.00,SSE,164,5.0,9.0,83,0.00,,,0.00,VWS V14.01,2013-01-13 17:32:00,
2013-01-13 11:37:00,73.5,68.0,29.99,SSW,203,3.0,5.0,83,0.00,,,0.00,VWS V14.01,2013-01-13 17:37:00,
2013-01-13 11:42:00,73.6,68.1,30.00,South,169,1.0,3.0,83,0.00,,,0.00,VWS V14.01,2013-01-13 17:42:00,
2013-01-13 11:47:00,73.8,68.3,29.99,South,179,0.0,4.0,83,0.00,,,0.00,VWS V14.01,2013-01-13 17:47:00,
2013-01-13 11:52:00,74.1,68.6,30.00,SSW,196,3.0,6.0,83,0.00,,,0.00,VWS V14.01,2013-01-13 17:52:00,
2013-01-13 11:57:00,74.5,68.3,30.00,SW,220,4.0,10.0,81,0.00,,,0.00,VWS V14.01,2013-01-13 17:57:00,
2013-01-13 12:02:00,74.8,68.6,30.00,South,179,6.0,6.0,81,0.00,,,0.00,VWS V14.01,2013-01-13 18:02:00,
2013-01-13 12:07:00,75.1,68.2,29.99,SSW,194,4.0,8.0,79,0.00,,,0.00,VWS V14.01,2013-01-13 18:07:00,
2013-01-13 12:12:00,75.5,68.5,29.99,South,186,5.0,8.0,79,0.00,,,0.00,VWS V14.01,2013-01-13 18:12:00,
2013-01-13 12:17:00,75.8,68.5,29.99,South,178,6.0,8.0,78,0.00,,,0.00,VWS V14.01,2013-01-13 18:17:00,
2013-01-13 12:22:00,75.8,68.5,29.99,South,181,10.0,10.0,78,0.00,,,0.00,VWS V14.01,2013-01-13 18:22:00,
2013-01-13 12:27:00,75.7,68.4,29.98,South,187,6.0,14.0,78,0.00,,,0.00,VWS V14.01,2013-01-13 18:27:00,
2013-01-13 12:32:00,75.5,67.8,29.98,South,188,6.0,10.0,77,0.00,,,0.00,VWS V14.01,2013-01-13 18:32:00,
2013-01-13 12:37:00,75.2,67.9,29.98,South,172,5.0,9.0,78,0.00,,,0.00,VWS V14.01,2013-01-13 18:37:00,
2013-01-13 12:42:00,75.2,67.9,29.98,SW,214,4.0,7.0,78,0.00,,,0.00,VWS V14.01,2013-01-13 18:42:00,
2013-01-13 12:47:00,75.2,67.9,29.98,South,184,0.0,5.0,78,0.00,,,0.00,VWS V14.01,2013-01-13 18:47:00,
2013-01-13 12:52:00,75.2,68.2,29.99,South,180,4.0,8.0,79,0.00,,,0.00,VWS V14.01,2013-01-13 18:52:00,
2013-01-13 12:57:00,75.1,68.2,29.98,South,189,4.0,6.0,79,0.00,,,0.00,VWS V14.01,2013-01-13 18:57:00,
2013-01-13 13:02:00,75.0,68.1,29.99,South,176,0.0,1.0,79,0.00,,,0.00,VWS V14.01,2013-01-13 19:02:00,
2013-01-13 13:07:00,74.9,67.9,29.98,SSE,160,2.0,7.0,79,0.00,,,0.00,VWS V14.01,2013-01-13 19:07:00,
2013-01-13 13:12:00,74.6,68.0,29.98,SE,128,0.0,5.0,80,0.00,,,0.00,VWS V14.01,2013-01-13 19:12:00,
2013-01-13 13:17:00,74.3,67.7,29.97,SE,143,9.0,11.0,80,0.00,,,0.00,VWS V14.01,2013-01-13 19:17:00,
2013-01-13 13:22:00,73.9,67.7,29.98,SSE,161,0.0,10.0,81,0.00,,,0.00,VWS V14.01,2013-01-13 19:22:00,
2013-01-13 13:27:00,73.7,67.9,29.99,SSE,159,0.0,0.0,82,0.00,,,0.00,VWS V14.01,2013-01-13 19:27:00,
2013-01-13 13:32:00,73.4,67.6,29.98,SSE,157,0.0,3.0,82,0.00,,,0.00,VWS V14.01,2013-01-13 19:32:00,
2013-01-13 13:37:00,73.2,67.7,29.98,South,171,0.0,0.0,83,0.00,,,0.00,VWS V14.01,2013-01-13 19:37:00,
2013-01-13 13:42:00,73.2,67.7,29.99,South,178,4.0,9.0,83,0.00,,,0.00,VWS V14.01,2013-01-13 19:42:00,
2013-01-13 13:47:00,73.3,67.8,29.98,SSE,160,4.0,8.0,83,0.00,,,0.00,VWS V14.01,2013-01-13 19:47:00,
2013-01-13 13:52:00,73.2,67.4,29.99,SSE,151,5.0,8.0,82,0.00,,,0.00,VWS V14.01,2013-01-13 19:52:00,
2013-01-13 13:57:00,73.1,67.6,29.99,South,181,0.0,1.0,83,0.00,,,0.00,VWS V14.01,2013-01-13 19:57:00,
2013-01-13 14:02:00,73.0,67.5,29.98,SE,144,0.0,9.0,83,0.00,,,0.00,VWS V14.01,2013-01-13 20:02:00,
2013-01-13 14:07:00,72.9,67.4,29.98,SSE,150,0.0,1.0,83,0.00,,,0.00,VWS V14.01,2013-01-13 20:07:00,
2013-01-13 14:12:00,72.9,67.4,29.99,South,184,0.0,5.0,83,0.00,,,0.00,VWS V14.01,2013-01-13 20:12:00,
2013-01-13 14:17:00,72.9,67.8,29.99,SSE,157,1.0,6.0,84,0.00,,,0.00,VWS V14.01,2013-01-13 20:17:00,
2013-01-13 14:22:00,72.9,67.4,29.99,South,188,0.0,0.0,83,0.00,,,0.00,VWS V14.01,2013-01-13 20:22:00,
2013-01-13 14:27:00,72.8,67.7,29.99,SSE,149,3.0,6.0,84,0.00,,,0.00,VWS V14.01,2013-01-13 20:27:00,
2013-01-13 14:32:00,72.8,67.7,29.98,SSE,160,0.0,5.0,84,0.00,,,0.00,VWS V14.01,2013-01-13 20:32:00,
2013-01-13 14:37:00,72.8,67.7,29.99,South,169,3.0,3.0,84,0.00,,,0.00,VWS V14.01,2013-01-13 20:37:00,
2013-01-13 14:42:00,72.8,67.7,29.99,SSE,167,0.0,1.0,84,0.00,,,0.00,VWS V14.01,2013-01-13 20:42:00,
2013-01-13 14:47:00,72.8,67.7,29.99,SE,141,3.0,5.0,84,0.00,,,0.00,VWS V14.01,2013-01-13 20:47:00,
2013-01-13 14:52:00,72.8,67.7,29.98,SSE,157,5.0,5.0,84,0.00,,,0.00,VWS V14.01,2013-01-13 20:52:00,
2013-01-13 14:57:00,72.7,67.6,29.99,SSE,150,8.0,9.0,84,0.00,,,0.00,VWS V14.01,2013-01-13 20:57:00,
2013-01-13 15:02:00,72.7,67.6,29.99,SSE,160,0.0,1.0,84,0.00,,,0.00,VWS V14.01,2013-01-13 21:02:00,
2013-01-13 15:07:00,72.7,67.6,29.99,SSE,148,0.0,6.0,84,0.00,,,0.00,VWS V14.01,2013-01-13 21:07:00,
2013-01-13 15:12:00,72.6,67.5,29.98,SSE,155,1.0,7.0,84,0.00,,,0.00,VWS V14.01,2013-01-13 21:12:00,
2013-01-13 15:17:00,72.4,67.3,29.99,South,179,5.0,7.0,84,0.00,,,0.00,VWS V14.01,2013-01-13 21:17:00,
2013-01-13 15:22:00,72.2,67.1,29.98,South,176,5.0,5.0,84,0.00,,,0.00,VWS V14.01,2013-01-13 21:22:00,
2013-01-13 15:27:00,72.0,67.2,29.99,South,174,4.0,5.0,85,0.00,,,0.00,VWS V14.01,2013-01-13 21:27:00,
2013-01-13 15:32:00,72.0,67.2,29.99,SSE,157,3.0,7.0,85,0.00,,,0.00,VWS V14.01,2013-01-13 21:32:00,
2013-01-13 15:37:00,71.9,67.5,29.99,SSE,164,5.0,5.0,86,0.00,,,0.00,VWS V14.01,2013-01-13 21:37:00,
2013-01-13 15:42:00,71.8,67.4,29.98,South,177,7.0,7.0,86,0.00,,,0.00,VWS V14.01,2013-01-13 21:42:00,
2013-01-13 15:47:00,71.7,66.9,29.98,SSE,157,7.0,8.0,85,0.00,,,0.00,VWS V14.01,2013-01-13 21:47:00,
2013-01-13 15:52:00,71.6,67.2,29.98,SSE,166,5.0,5.0,86,0.00,,,0.00,VWS V14.01,2013-01-13 21:52:00,
2013-01-13 15:57:00,71.6,67.2,29.99,SSW,203,1.0,9.0,86,0.00,,,0.00,VWS V14.01,2013-01-13 21:57:00,
2013-01-13 16:02:00,71.6,67.2,29.99,SSE,168,4.0,4.0,86,0.00,,,0.00,VWS V14.01,2013-01-13 22:02:00,
2013-01-13 16:07:00,71.5,67.1,29.99,SSE,162,5.0,5.0,86,0.00,,,0.00,VWS V14.01,2013-01-13 22:07:00,
2013-01-13 16:12:00,71.4,67.3,29.99,SSE,166,0.0,0.0,87,0.00,,,0.00,VWS V14.01,2013-01-13 22:12:00,
2013-01-13 16:17:00,71.3,67.2,29.99,SE,144,1.0,7.0,87,0.00,,,0.00,VWS V14.01,2013-01-13 22:17:00,
2013-01-13 16:22:00,71.3,67.2,29.99,SSE,156,6.0,8.0,87,0.00,,,0.00,VWS V14.01,2013-01-13 22:22:00,
2013-01-13 16:27:00,71.2,67.1,29.99,SSW,196,0.0,3.0,87,0.00,,,0.00,VWS V14.01,2013-01-13 22:27:00,
2013-01-13 16:32:00,71.1,67.0,29.99,South,182,3.0,5.0,87,0.00,,,0.00,VWS V14.01,2013-01-13 22:32:00,
2013-01-13 16:37:00,71.0,66.9,29.99,South,185,0.0,1.0,87,0.00,,,0.00,VWS V14.01,2013-01-13 22:37:00,
2013-01-13 16:42:00,71.0,67.3,30.00,South,174,2.0,5.0,88,0.00,,,0.00,VWS V14.01,2013-01-13 22:42:00,
2013-01-13 16:47:00,70.9,67.2,30.00,SSW,198,1.0,5.0,88,0.00,,,0.00,VWS V14.01,2013-01-13 22:47:00,
2013-01-13 16:52:00,70.8,67.1,29.99,South,189,4.0,5.0,88,0.00,,,0.00,VWS V14.01,2013-01-13 22:52:00,
2013-01-13 16:57:00,70.7,67.0,29.99,SSE,161,0.0,5.0,88,0.00,,,0.00,VWS V14.01,2013-01-13 22:57:00,
2013-01-13 17:02:00,70.6,66.9,30.00,South,171,2.0,6.0,88,0.00,,,0.00,VWS V14.01,2013-01-13 23:02:00,
2013-01-13 17:07:00,70.5,67.1,30.00,South,189,0.0,0.0,89,0.00,,,0.00,VWS V14.01,2013-01-13 23:07:00,
2013-01-13 17:12:00,70.4,67.0,29.99,SSE,160,12.0,14.0,89,0.00,,,0.00,VWS V14.01,2013-01-13 23:12:00,
2013-01-13 17:17:00,70.4,67.0,30.00,SSW,200,0.0,1.0,89,0.00,,,0.00,VWS V14.01,2013-01-13 23:17:00,
2013-01-13 17:22:00,70.4,67.0,30.00,SSW,197,2.0,7.0,89,0.00,,,0.00,VWS V14.01,2013-01-13 23:22:00,
2013-01-13 17:27:00,70.3,67.2,30.00,SSE,160,0.0,4.0,90,0.00,,,0.00,VWS V14.01,2013-01-13 23:27:00,
2013-01-13 17:32:00,70.3,67.2,30.00,SSE,162,0.0,4.0,90,0.00,,,0.00,VWS V14.01,2013-01-13 23:32:00,
2013-01-13 17:37:00,70.2,67.1,30.01,SSE,154,2.0,8.0,90,0.00,,,0.00,VWS V14.01,2013-01-13 23:37:00,
2013-01-13 17:42:00,70.2,67.1,30.00,South,177,5.0,5.0,90,0.00,,,0.00,VWS V14.01,2013-01-13 23:42:00,
2013-01-13 17:47:00,70.1,67.0,30.00,SSE,147,2.0,2.0,90,0.00,,,0.00,VWS V14.01,2013-01-13 23:47:00,
2013-01-13 17:52:00,70.1,67.0,30.00,South,178,1.0,4.0,90,0.00,,,0.00,VWS V14.01,2013-01-13 23:52:00,
2013-01-13 17:57:00,70.1,67.0,30.01,SSE,158,0.0,0.0,90,0.00,,,0.00,VWS V14.01,2013-01-13 23:57:00,
2013-01-13 18:02:00,70.1,67.0,30.01,SSE,164,0.0,0.0,90,0.00,,,0.00,VWS V14.01,2013-01-14 00:02:00,
2013-01-13 18:07:00,70.1,67.0,30.01,South,172,0.0,3.0,90,0.00,,,0.00,VWS V14.01,2013-01-14 00:07:00,
2013-01-13 18:12:00,70.0,67.3,30.01,South,169,3.0,4.0,91,0.03,,,0.03,VWS V14.01,2013-01-14 00:12:00,
2013-01-13 18:17:00,69.8,67.1,30.01,South,186,0.0,0.0,91,0.05,,,0.05,VWS V14.01,2013-01-14 00:17:00,
2013-01-13 18:22:00,69.7,67.3,30.00,SSE,160,0.0,4.0,92,0.06,,,0.06,VWS V14.01,2013-01-14 00:22:00,
2013-01-13 18:27:00,69.5,67.1,30.01,SSE,156,4.0,6.0,92,0.06,,,0.06,VWS V14.01,2013-01-14 00:27:00,
2013-01-13 18:32:00,69.5,67.4,30.01,South,175,1.0,1.0,93,0.06,,,0.06,VWS V14.01,2013-01-14 00:32:00,
2013-01-13 18:37:00,69.4,67.3,30.01,SSE,152,2.0,5.0,93,0.06,,,0.06,VWS V14.01,2013-01-14 00:37:00,
2013-01-13 18:42:00,69.3,67.2,30.02,South,189,3.0,5.0,93,0.06,,,0.06,VWS V14.01,2013-01-14 00:42:00,
2013-01-13 18:47:00,69.3,67.2,30.02,SW,220,0.0,0.0,93,0.06,,,0.06,VWS V14.01,2013-01-14 00:47:00,
2013-01-13 18:52:00,69.3,67.5,30.01,SSE,154,6.0,7.0,94,0.06,,,0.06,VWS V14.01,2013-01-14 00:52:00,
2013-01-13 18:57:00,69.3,67.5,30.03,South,181,7.0,7.0,94,0.06,,,0.06,VWS V14.01,2013-01-14 00:57:00,
2013-01-13 19:02:00,69.3,67.5,30.02,South,189,0.0,0.0,94,0.06,,,0.06,VWS V14.01,2013-01-14 01:02:00,
2013-01-13 19:07:00,69.3,67.5,30.02,SSE,154,0.0,0.0,94,0.06,,,0.06,VWS V14.01,2013-01-14 01:07:00,
2013-01-13 19:12:00,69.3,67.5,30.02,SSW,200,4.0,5.0,94,0.04,,,0.06,VWS V14.01,2013-01-14 01:12:00,
2013-01-13 19:17:00,69.4,67.6,30.02,SW,232,2.0,9.0,94,0.01,,,0.06,VWS V14.01,2013-01-14 01:17:00,
2013-01-13 19:22:00,69.4,67.6,30.02,South,184,0.0,0.0,94,0.00,,,0.06,VWS V14.01,2013-01-14 01:22:00,
2013-01-13 19:27:00,69.5,67.7,30.02,South,181,0.0,0.0,94,0.00,,,0.06,VWS V14.01,2013-01-14 01:27:00,
2013-01-13 19:32:00,69.6,68.1,30.02,SSE,164,0.0,0.0,95,0.00,,,0.06,VWS V14.01,2013-01-14 01:32:00,
2013-01-13 19:37:00,69.6,68.1,30.02,SW,226,0.0,0.0,95,0.00,,,0.06,VWS V14.01,2013-01-14 01:37:00,
2013-01-13 19:42:00,69.6,68.1,30.02,South,177,5.0,5.0,95,0.00,,,0.06,VWS V14.01,2013-01-14 01:42:00,
2013-01-13 19:47:00,69.6,68.1,30.02,SSE,164,0.0,0.0,95,0.00,,,0.06,VWS V14.01,2013-01-14 01:47:00,
2013-01-13 19:52:00,69.7,68.2,30.01,South,171,0.0,1.0,95,0.00,,,0.06,VWS V14.01,2013-01-14 01:52:00,
2013-01-13 19:57:00,69.6,68.1,30.02,South,177,4.0,4.0,95,0.00,,,0.06,VWS V14.01,2013-01-14 01:57:00,
2013-01-13 20:02:00,69.6,68.1,30.01,SSE,164,0.0,0.0,95,0.00,,,0.06,VWS V14.01,2013-01-14 02:02:00,
2013-01-13 20:07:00,69.6,68.1,30.01,South,170,0.0,0.0,95,0.00,,,0.06,VWS V14.01,2013-01-14 02:07:00,
2013-01-13 20:12:00,69.6,68.1,30.01,South,176,0.0,0.0,95,0.00,,,0.06,VWS V14.01,2013-01-14 02:12:00,
2013-01-13 20:17:00,69.6,68.1,30.00,SSE,156,8.0,8.0,95,0.00,,,0.06,VWS V14.01,2013-01-14 02:17:00,
2013-01-13 20:22:00,69.5,68.0,30.00,SSE,158,0.0,0.0,95,0.00,,,0.06,VWS V14.01,2013-01-14 02:22:00,
2013-01-13 20:27:00,69.5,68.0,30.00,South,189,0.0,0.0,95,0.00,,,0.06,VWS V14.01,2013-01-14 02:27:00,
2013-01-13 20:32:00,69.4,67.9,30.00,South,189,0.0,0.0,95,0.00,,,0.06,VWS V14.01,2013-01-14 02:32:00,
2013-01-13 20:37:00,69.4,67.9,30.00,South,189,0.0,0.0,95,0.00,,,0.06,VWS V14.01,2013-01-14 02:37:00,
2013-01-13 20:42:00,69.4,67.9,30.01,SW,235,1.0,3.0,95,0.00,,,0.06,VWS V14.01,2013-01-14 02:42:00,
2013-01-13 20:47:00,69.4,67.9,30.01,SSW,194,0.0,0.0,95,0.00,,,0.06,VWS V14.01,2013-01-14 02:47:00,
2013-01-13 20:52:00,69.4,67.9,30.01,SSE,156,0.0,0.0,95,0.00,,,0.06,VWS V14.01,2013-01-14 02:52:00,
2013-01-13 20:57:00,69.5,68.0,30.01,SSW,193,0.0,0.0,95,0.00,,,0.06,VWS V14.01,2013-01-14 02:57:00,
2013-01-13 21:02:00,69.6,68.1,30.02,South,174,0.0,0.0,95,0.00,,,0.06,VWS V14.01,2013-01-14 03:02:00,
2013-01-13 21:07:00,69.7,68.5,30.01,South,186,0.0,0.0,96,0.00,,,0.06,VWS V14.01,2013-01-14 03:07:00,
2013-01-13 21:12:00,69.8,68.6,30.02,South,186,2.0,3.0,96,0.00,,,0.06,VWS V14.01,2013-01-14 03:12:00,
2013-01-13 21:17:00,69.9,68.7,30.02,South,177,0.0,5.0,96,0.00,,,0.06,VWS V14.01,2013-01-14 03:17:00,
2013-01-13 21:22:00,69.9,68.7,30.02,South,187,1.0,6.0,96,0.00,,,0.06,VWS V14.01,2013-01-14 03:22:00,
2013-01-13 21:27:00,70.0,68.8,30.02,SW,220,4.0,14.0,96,0.00,,,0.06,VWS V14.01,2013-01-14 03:27:00,
2013-01-13 21:32:00,70.0,68.8,30.02,South,180,6.0,7.0,96,0.00,,,0.06,VWS V14.01,2013-01-14 03:32:00,
2013-01-13 21:37:00,70.0,68.8,30.02,South,183,0.0,4.0,96,0.00,,,0.06,VWS V14.01,2013-01-14 03:37:00,
2013-01-13 21:42:00,70.0,68.8,30.02,SW,229,0.0,1.0,96,0.00,,,0.06,VWS V14.01,2013-01-14 03:42:00,
2013-01-13 21:47:00,70.0,68.5,30.03,South,190,0.0,0.0,95,0.00,,,0.06,VWS V14.01,2013-01-14 03:47:00,
2013-01-13 21:52:00,70.0,68.8,30.03,SW,217,0.0,1.0,96,0.00,,,0.06,VWS V14.01,2013-01-14 03:52:00,
2013-01-13 21:57:00,70.0,68.8,30.03,SSW,212,3.0,4.0,96,0.00,,,0.06,VWS V14.01,2013-01-14 03:57:00,
2013-01-13 22:02:00,69.9,68.4,30.02,SSW,203,0.0,0.0,95,0.00,,,0.06,VWS V14.01,2013-01-14 04:02:00,
2013-01-13 22:07:00,70.0,68.5,30.03,South,179,3.0,5.0,95,0.00,,,0.06,VWS V14.01,2013-01-14 04:07:00,
2013-01-13 22:12:00,70.0,68.8,30.03,South,185,0.0,0.0,96,0.00,,,0.06,VWS V14.01,2013-01-14 04:12:00,
2013-01-13 22:17:00,70.0,68.8,30.03,South,191,0.0,2.0,96,0.00,,,0.06,VWS V14.01,2013-01-14 04:17:00,
2013-01-13 22:22:00,70.0,68.8,30.03,SSW,194,0.0,0.0,96,0.00,,,0.06,VWS V14.01,2013-01-14 04:22:00,
2013-01-13 22:27:00,70.0,68.8,30.03,South,180,0.0,7.0,96,0.00,,,0.06,VWS V14.01,2013-01-14 04:27:00,
2013-01-13 22:32:00,70.0,68.8,30.02,South,181,0.0,4.0,96,0.00,,,0.06,VWS V14.01,2013-01-14 04:32:00,
2013-01-13 22:37:00,70.1,68.9,30.03,SSE,159,1.0,3.0,96,0.00,,,0.06,VWS V14.01,2013-01-14 04:37:00,
2013-01-13 22:42:00,70.1,68.9,30.03,SSE,166,0.0,4.0,96,0.00,,,0.06,VWS V14.01,2013-01-14 04:42:00,
2013-01-13 22:47:00,70.1,68.9,30.03,SW,232,0.0,1.0,96,0.00,,,0.06,VWS V14.01,2013-01-14 04:47:00,
2013-01-13 22:52:00,70.1,68.9,30.03,South,185,4.0,8.0,96,0.00,,,0.06,VWS V14.01,2013-01-14 04:52:00,
2013-01-13 22:57:00,70.1,68.9,30.02,South,181,4.0,6.0,96,0.00,,,0.06,VWS V14.01,2013-01-14 04:57:00,
2013-01-13 23:00:00,70.2,69.0,30.03,South,184,4.0,4.0,96,0.00,,,0.06,VWS V14.01,2013-01-14 05:00:00,
2013-01-13 23:02:00,70.1,68.9,30.02,SSE,147,0.0,6.0,96,0.00,,,0.06,VWS V14.01,2013-01-14 05:02:00,
2013-01-13 23:03:00,70.1,68.9,30.02,South,179,0.0,4.0,96,0.00,,,0.06,VWS V14.01,2013-01-14 05:03:00,
2013-01-13 23:08:00,70.1,68.9,30.02,South,185,0.0,0.0,96,0.00,,,0.06,VWS V14.01,2013-01-14 05:08:00,
2013-01-13 23:13:00,70.1,68.9,30.02,SSE,150,0.0,0.0,96,0.00,,,0.06,VWS V14.01,2013-01-14 05:13:00,
2013-01-13 23:18:00,70.2,69.0,30.01,South,183,2.0,4.0,96,0.00,,,0.06,VWS V14.01,2013-01-14 05:18:00,
2013-01-13 23:23:00,70.1,68.9,30.01,SSE,148,0.0,4.0,96,0.00,,,0.06,VWS V14.01,2013-01-14 05:23:00,
2013-01-13 23:28:00,70.1,68.9,30.00,SSE,149,0.0,5.0,96,0.00,,,0.06,VWS V14.01,2013-01-14 05:28:00,
2013-01-13 23:33:00,70.1,68.9,30.01,South,180,6.0,8.0,96,0.00,,,0.06,VWS V14.01,2013-01-14 05:33:00,
2013-01-13 23:38:00,70.1,68.9,30.01,SSE,156,0.0,1.0,96,0.00,,,0.06,VWS V14.01,2013-01-14 05:38:00,
2013-01-13 23:43:00,70.1,68.9,30.01,SSW,201,0.0,4.0,96,0.00,,,0.06,VWS V14.01,2013-01-14 05:43:00,
2013-01-13 23:48:00,70.2,69.0,30.01,SSE,158,0.0,3.0,96,0.00,,,0.06,VWS V14.01,2013-01-14 05:48:00,
2013-01-13 23:53:00,70.2,69.0,30.01,SSE,166,0.0,3.0,96,0.00,,,0.06,VWS V14.01,2013-01-14 05:53:00,
2013-01-13 23:58:00,70.2,69.0,30.00,SW,233,0.0,0.0,96,0.00,,,0.06,VWS V14.01,2013-01-14 05:58:00,